createdAt,value
2022-10-02T00:00:01.958Z,75.68
2022-10-02T00:02:42.580Z,75.36
2022-10-02T00:05:17.672Z,75.28
2022-10-02T00:07:53.216Z,75.69
2022-10-02T00:10:44.776Z,75.68
2022-10-02T00:13:33.656Z,75.80
2022-10-02T00:16:01.928Z,76.04
2022-10-02T00:18:30.490Z,76.05
2022-10-02T00:21:10.819Z,76.44
2022-10-02T00:23:45.607Z,76.70
2022-10-02T00:26:19.972Z,76.90
2022-10-02T00:29:02.578Z,77.05
2022-10-02T00:31:48.259Z,77.02
2022-10-02T00:34:37.100Z,77.27
2022-10-02T00:37:22.585Z,77.60
2022-10-02T00:40:08.148Z,77.72
2022-10-02T00:42:59.776Z,78.24
2022-10-02T00:45:49.004Z,78.36
2022-10-02T00:48:36.811Z,78.43
2022-10-02T00:51:07.557Z,78.64
2022-10-02T00:53:57.086Z,78.56
2022-10-02T00:56:39.641Z,78.80
2022-10-02T00:59:19.120Z,78.82
2022-10-02T01:01:54.926Z,78.72
2022-10-02T01:04:39.841Z,78.83
2022-10-02T01:07:09.048Z,78.86
2022-10-02T01:09:35.911Z,78.65
2022-10-02T01:12:02.783Z,78.54
2022-10-02T01:14:37.575Z,78.92
2022-10-02T01:17:18.584Z,78.66
2022-10-02T01:19:45.459Z,78.77
2022-10-02T01:22:30.559Z,78.38
2022-10-02T01:24:57.967Z,78.49
2022-10-02T01:27:25.355Z,78.27
2022-10-02T01:30:00.307Z,78.29
2022-10-02T01:32:28.612Z,78.26
2022-10-02T01:34:55.865Z,78.30
2022-10-02T01:37:24.629Z,78.31
2022-10-02T01:39:51.496Z,78.45
2022-10-02T01:42:18.468Z,78.25
2022-10-02T01:44:45.513Z,78.40
2022-10-02T01:47:14.564Z,78.26
2022-10-02T01:50:09.399Z,78.27
2022-10-02T01:52:42.727Z,78.40
2022-10-02T01:55:21.394Z,78.30
2022-10-02T01:58:04.166Z,78.50
2022-10-02T02:00:43.674Z,78.49
2022-10-02T02:03:19.211Z,78.59
2022-10-02T02:05:48.894Z,78.61
2022-10-02T02:08:30.455Z,78.70
2022-10-02T02:11:16.387Z,78.71
2022-10-02T02:13:56.043Z,78.51
2022-10-02T02:16:28.392Z,78.77
2022-10-02T02:19:16.261Z,78.96
2022-10-02T02:21:56.296Z,79.03
2022-10-02T02:24:26.263Z,78.99
2022-10-02T02:26:54.230Z,79.19
2022-10-02T02:29:21.749Z,79.25
2022-10-02T02:31:52.848Z,79.26
2022-10-02T02:34:23.438Z,79.30
2022-10-02T02:36:54.637Z,79.19
2022-10-02T02:39:27.052Z,79.64
2022-10-02T02:41:56.264Z,79.46
2022-10-02T02:44:33.539Z,79.52
2022-10-02T02:47:17.773Z,79.57
2022-10-02T02:49:50.429Z,79.92
2022-10-02T02:52:22.791Z,80.19
2022-10-02T02:54:54.171Z,80.03
2022-10-02T02:57:25.560Z,80.01
2022-10-02T02:59:52.435Z,80.00
2022-10-02T03:02:19.348Z,80.56
2022-10-02T03:04:46.267Z,80.19
2022-10-02T03:07:14.963Z,80.51
2022-10-02T03:09:42.579Z,80.75
2022-10-02T03:12:17.899Z,80.79
2022-10-02T03:15:02.964Z,81.02
2022-10-02T03:17:50.156Z,80.83
2022-10-02T03:20:19.899Z,81.11
2022-10-02T03:23:00.117Z,80.98
2022-10-02T03:25:34.048Z,81.09
2022-10-02T03:28:50.560Z,81.15
2022-10-02T03:31:12.396Z,81.18
2022-10-02T03:33:39.301Z,81.38
2022-10-02T03:36:06.255Z,81.33
2022-10-02T03:38:33.404Z,81.53
2022-10-02T03:41:00.317Z,81.58
2022-10-02T03:43:28.717Z,81.73
2022-10-02T03:45:56.496Z,81.61
2022-10-02T03:48:23.397Z,81.70
2022-10-02T03:50:51.070Z,81.71
2022-10-02T03:53:20.465Z,81.83
2022-10-02T03:55:58.347Z,81.88
2022-10-02T03:58:25.224Z,81.75
2022-10-02T04:01:10.380Z,81.77
2022-10-02T04:03:39.175Z,81.76
2022-10-02T04:06:06.576Z,81.99
2022-10-02T04:08:36.395Z,81.90
2022-10-02T04:11:23.900Z,81.89
2022-10-02T04:13:55.807Z,81.86
2022-10-02T04:16:36.044Z,81.94
2022-10-02T04:19:16.672Z,82.04
2022-10-02T04:21:43.460Z,81.84
2022-10-02T04:24:22.128Z,81.90
2022-10-02T04:27:12.351Z,82.01
2022-10-02T04:29:49.420Z,81.92
2022-10-02T04:32:18.145Z,82.04
2022-10-02T04:34:45.020Z,82.01
2022-10-02T04:37:24.048Z,82.03
2022-10-02T04:40:13.805Z,82.12
2022-10-02T04:42:51.676Z,82.01
2022-10-02T04:46:00.437Z,82.00
2022-10-02T04:48:46.040Z,82.13
2022-10-02T04:51:34.777Z,81.95
2022-10-02T04:54:07.421Z,82.64
2022-10-02T04:56:54.701Z,82.19
2022-10-02T04:59:52.196Z,82.20
2022-10-02T05:02:34.464Z,82.23
2022-10-02T05:05:11.273Z,82.12
2022-10-02T05:07:41.464Z,82.14
2022-10-02T05:10:46.145Z,81.99
2022-10-02T05:13:12.868Z,82.46
2022-10-02T05:16:15.172Z,82.36
2022-10-02T05:19:00.325Z,82.40
2022-10-02T05:21:36.163Z,82.71
2022-10-02T05:24:23.251Z,82.68
2022-10-02T05:27:11.751Z,82.76
2022-10-02T05:29:56.648Z,82.79
2022-10-02T05:32:40.219Z,82.71
2022-10-02T05:35:42.993Z,82.76
2022-10-02T05:38:19.033Z,82.97
2022-10-02T05:41:14.614Z,83.08
2022-10-02T05:44:12.375Z,82.85
2022-10-02T05:46:50.352Z,82.85
2022-10-02T05:49:38.429Z,82.72
2022-10-02T05:52:26.235Z,82.97
2022-10-02T05:54:55.875Z,82.98
2022-10-02T05:57:26.457Z,83.06
2022-10-02T06:00:28.718Z,83.18
2022-10-02T06:03:23.378Z,83.17
2022-10-02T06:06:01.235Z,83.32
2022-10-02T06:08:32.804Z,83.44
2022-10-02T06:11:04.139Z,83.30
2022-10-02T06:13:36.167Z,83.47
2022-10-02T06:16:29.348Z,83.37
2022-10-02T06:18:59.498Z,83.51
2022-10-02T06:21:29.060Z,83.53
2022-10-02T06:23:58.059Z,83.75
2022-10-02T06:26:46.985Z,83.83
2022-10-02T06:29:39.524Z,83.81
2022-10-02T06:32:11.090Z,83.99
2022-10-02T06:34:37.974Z,83.83
2022-10-02T06:37:52.654Z,83.84
2022-10-02T06:40:19.419Z,84.06
2022-10-02T06:43:09.625Z,83.88
2022-10-02T06:45:46.223Z,84.08
2022-10-02T06:48:49.012Z,84.05
2022-10-02T06:51:21.309Z,83.62
2022-10-02T06:53:57.086Z,84.06
2022-10-02T06:56:39.092Z,83.97
2022-10-02T06:59:21.261Z,84.00
2022-10-02T07:01:59.383Z,83.95
2022-10-02T07:04:56.608Z,83.77
2022-10-02T07:07:38.970Z,83.88
2022-10-02T07:10:14.685Z,83.98
2022-10-02T07:13:09.488Z,83.82
2022-10-02T07:15:49.072Z,83.86
2022-10-02T07:18:45.196Z,84.03
2022-10-02T07:21:32.933Z,83.95
2022-10-02T07:24:17.853Z,83.93
2022-10-02T07:26:54.066Z,83.88
2022-10-02T07:29:51.309Z,84.17
2022-10-02T07:32:48.908Z,84.01
2022-10-02T07:36:01.644Z,84.23
2022-10-02T07:38:56.118Z,83.88
2022-10-02T07:41:34.664Z,83.99
2022-10-02T07:44:07.305Z,84.15
2022-10-02T07:47:00.360Z,84.26
2022-10-02T07:49:39.058Z,84.30
2022-10-02T07:52:38.086Z,84.33
2022-10-02T07:55:19.368Z,84.13
2022-10-02T07:57:52.444Z,84.61
2022-10-02T08:00:20.951Z,84.51
2022-10-02T08:03:10.266Z,84.34
2022-10-02T08:05:48.045Z,84.09
2022-10-02T08:08:21.446Z,84.35
2022-10-02T08:10:54.000Z,84.38
2022-10-02T08:13:31.744Z,84.40
2022-10-02T08:15:59.143Z,83.96
2022-10-02T08:18:44.659Z,83.69
2022-10-02T08:21:19.080Z,83.88
2022-10-02T08:23:54.324Z,83.43
2022-10-02T08:26:48.442Z,83.46
2022-10-02T08:29:40.294Z,83.47
2022-10-02T08:32:11.949Z,83.36
2022-10-02T08:34:40.954Z,83.21
2022-10-02T08:37:43.131Z,83.12
2022-10-02T08:40:39.349Z,83.10
2022-10-02T08:43:08.551Z,82.16
2022-10-02T08:46:02.478Z,81.98
2022-10-02T08:48:49.654Z,81.27
2022-10-02T08:51:56.362Z,81.35
2022-10-02T08:54:45.227Z,80.88
2022-10-02T08:57:44.141Z,79.96
2022-10-02T09:00:49.496Z,79.61
2022-10-02T09:03:47.354Z,79.78
2022-10-02T09:06:17.121Z,78.85
2022-10-02T09:09:04.259Z,78.74
2022-10-02T09:11:50.431Z,78.00
2022-10-02T09:14:29.072Z,77.10
2022-10-02T09:17:10.079Z,76.46
2022-10-02T09:19:39.744Z,76.51
2022-10-02T09:22:25.273Z,75.91
2022-10-02T09:25:29.146Z,75.24
2022-10-02T09:28:11.348Z,75.30
2022-10-02T09:30:58.369Z,75.08
2022-10-02T09:33:55.051Z,74.64
2022-10-02T09:37:19.922Z,74.35
2022-10-02T09:40:06.096Z,74.26
2022-10-02T09:42:51.516Z,73.89
2022-10-02T09:45:38.300Z,73.58
2022-10-02T09:48:45.456Z,73.15
2022-10-02T09:51:41.941Z,72.60
2022-10-02T09:54:30.174Z,71.99
2022-10-02T09:57:34.191Z,72.15
2022-10-02T10:00:30.557Z,71.95
2022-10-02T10:03:16.211Z,71.78
2022-10-02T10:05:54.525Z,71.78
2022-10-02T10:08:35.523Z,71.15
2022-10-02T10:11:23.565Z,70.90
2022-10-02T10:14:14.789Z,70.68
2022-10-02T10:16:51.636Z,71.38
2022-10-02T10:19:45.435Z,70.91
2022-10-02T10:22:21.357Z,70.66
2022-10-02T10:25:20.955Z,70.30
2022-10-02T10:28:09.469Z,70.74
2022-10-02T10:30:39.298Z,70.48
2022-10-02T10:33:15.056Z,70.67
2022-10-02T10:36:35.748Z,70.38
2022-10-02T10:39:08.144Z,70.84
2022-10-02T10:42:01.220Z,71.45
2022-10-02T10:44:30.880Z,71.63
2022-10-02T10:47:23.868Z,71.28
2022-10-02T10:50:08.678Z,70.90
2022-10-02T10:52:55.110Z,71.12
2022-10-02T10:56:11.302Z,70.61
2022-10-02T10:58:47.921Z,71.00
2022-10-02T11:01:18.789Z,70.72
2022-10-02T11:04:10.536Z,70.29
2022-10-02T11:07:16.405Z,69.82
2022-10-02T11:10:02.558Z,69.61
2022-10-02T11:12:57.470Z,69.59
2022-10-02T11:15:36.538Z,69.18
2022-10-02T11:18:15.408Z,69.03
2022-10-02T11:21:12.672Z,68.16
2022-10-02T11:24:13.597Z,67.78
2022-10-02T11:27:27.180Z,68.01
2022-10-02T11:30:20.466Z,68.09
2022-10-02T11:32:54.258Z,67.96
2022-10-02T11:35:24.699Z,66.94
2022-10-02T11:38:25.307Z,66.77
2022-10-02T11:41:20.903Z,66.75
2022-10-02T11:44:31.866Z,66.87
2022-10-02T11:47:01.850Z,66.54
2022-10-02T11:49:44.740Z,66.32
2022-10-02T11:52:52.101Z,66.12
2022-10-02T11:55:28.611Z,65.95
2022-10-02T11:58:45.497Z,65.66
2022-10-02T12:01:45.401Z,65.72
2022-10-02T12:05:06.094Z,65.52
2022-10-02T12:07:48.153Z,66.03
2022-10-02T12:10:48.317Z,65.63
2022-10-02T12:13:43.185Z,65.98
2022-10-02T12:16:31.571Z,65.60
2022-10-02T12:19:35.834Z,65.63
2022-10-02T12:22:36.284Z,65.79
2022-10-02T12:26:12.327Z,66.38
2022-10-02T12:28:56.132Z,65.72
2022-10-02T12:31:32.556Z,65.61
2022-10-02T12:35:05.280Z,65.05
2022-10-02T12:38:07.470Z,65.06
2022-10-02T12:41:10.071Z,64.92
2022-10-02T12:44:17.160Z,64.71
2022-10-02T12:47:21.624Z,64.87
2022-10-02T12:50:05.813Z,64.39
2022-10-02T12:53:20.584Z,65.01
2022-10-02T12:56:18.777Z,64.86
2022-10-02T12:59:21.208Z,64.93
2022-10-02T13:02:59.707Z,65.26
2022-10-02T13:06:06.496Z,65.38
2022-10-02T13:09:11.814Z,64.85
2022-10-02T13:12:05.447Z,64.36
2022-10-02T13:14:56.473Z,64.04
2022-10-02T13:17:46.403Z,64.24
2022-10-02T13:20:49.060Z,64.21
2022-10-02T13:23:32.090Z,63.91
2022-10-02T13:26:26.948Z,64.19
2022-10-02T13:29:15.618Z,64.20
2022-10-02T13:32:22.918Z,64.17
2022-10-02T13:35:29.734Z,63.83
2022-10-02T13:38:14.821Z,63.68
2022-10-02T13:41:20.136Z,63.97
2022-10-02T13:44:07.531Z,63.67
2022-10-02T13:46:51.986Z,63.83
2022-10-02T13:49:41.721Z,63.32
2022-10-02T13:52:32.617Z,63.92
2022-10-02T13:55:20.161Z,63.50
2022-10-02T13:58:20.032Z,63.12
2022-10-02T14:01:10.107Z,63.71
2022-10-02T14:04:19.745Z,63.22
2022-10-02T14:06:55.981Z,63.14
2022-10-02T14:09:43.299Z,63.42
2022-10-02T14:12:25.911Z,63.25
2022-10-02T14:15:06.546Z,62.78
2022-10-02T14:18:23.368Z,62.25
2022-10-02T14:21:23.922Z,62.89
2022-10-02T14:24:21.310Z,62.57
2022-10-02T14:27:12.027Z,62.76
2022-10-02T14:29:49.165Z,62.61
2022-10-02T14:32:21.633Z,63.02
2022-10-02T14:35:17.308Z,62.69
2022-10-02T14:38:14.745Z,63.06
2022-10-02T14:40:57.621Z,63.11
2022-10-02T14:43:53.633Z,62.97
2022-10-02T14:46:36.072Z,63.25
2022-10-02T14:49:39.463Z,63.26
2022-10-02T14:52:27.574Z,62.62
2022-10-02T14:55:41.665Z,62.63
2022-10-02T14:58:23.841Z,62.84
2022-10-02T15:01:26.554Z,63.25
2022-10-02T15:04:41.509Z,63.17
2022-10-02T15:07:14.088Z,62.68
2022-10-02T15:09:56.115Z,62.83
2022-10-02T15:12:30.335Z,62.55
2022-10-02T15:15:20.879Z,63.14
2022-10-02T15:18:31.237Z,62.60
2022-10-02T15:21:26.240Z,62.79
2022-10-02T15:23:57.534Z,62.28
2022-10-02T15:26:50.069Z,62.31
2022-10-02T15:29:16.920Z,62.80
2022-10-02T15:32:07.259Z,62.35
2022-10-02T15:34:40.657Z,62.12
2022-10-02T15:37:21.893Z,62.59
2022-10-02T15:39:59.336Z,62.72
2022-10-02T15:42:56.146Z,62.58
2022-10-02T15:46:08.178Z,62.85
2022-10-02T15:48:58.921Z,63.11
2022-10-02T15:52:08.739Z,63.84
2022-10-02T15:55:19.637Z,63.82
2022-10-02T15:58:16.161Z,63.49
2022-10-02T16:01:00.963Z,64.23
2022-10-02T16:03:44.819Z,64.09
2022-10-02T16:07:09.307Z,63.98
2022-10-02T16:10:16.536Z,64.39
2022-10-02T16:13:12.451Z,64.82
2022-10-02T16:16:05.255Z,64.91
2022-10-02T16:19:01.265Z,64.68
2022-10-02T16:22:20.912Z,65.05
2022-10-02T16:25:20.851Z,65.07
2022-10-02T16:28:25.982Z,65.60
2022-10-02T16:30:52.813Z,65.27
2022-10-02T16:34:21.521Z,65.87
2022-10-02T16:37:01.442Z,65.48
2022-10-02T16:39:43.721Z,66.21
2022-10-02T16:42:43.889Z,66.19
2022-10-02T16:45:34.787Z,66.12
2022-10-02T16:48:17.145Z,65.96
2022-10-02T16:51:05.266Z,66.33
2022-10-02T16:53:47.982Z,66.34
2022-10-02T16:56:24.512Z,66.71
2022-10-02T16:59:08.549Z,66.43
2022-10-02T17:02:16.835Z,66.94
2022-10-02T17:05:25.498Z,66.90
2022-10-02T17:08:07.793Z,66.69
2022-10-02T17:11:14.404Z,67.10
2022-10-02T17:14:10.856Z,67.64
2022-10-02T17:16:52.598Z,67.64
2022-10-02T17:19:52.495Z,67.44
2022-10-02T17:22:39.359Z,67.35
2022-10-02T17:25:29.963Z,67.64
2022-10-02T17:28:18.315Z,68.08
2022-10-02T17:31:09.304Z,67.97
2022-10-02T17:33:57.136Z,68.53
2022-10-02T17:36:36.650Z,68.10
2022-10-02T17:39:09.430Z,68.38
2022-10-02T17:42:08.086Z,68.78
2022-10-02T17:45:15.032Z,68.56
2022-10-02T17:48:07.021Z,69.02
2022-10-02T17:51:18.593Z,69.05
2022-10-02T17:54:25.781Z,69.17
2022-10-02T17:57:06.356Z,68.82
2022-10-02T17:59:40.745Z,69.59
2022-10-02T18:02:46.444Z,69.69
2022-10-02T18:06:07.584Z,69.32
2022-10-02T18:09:15.208Z,69.72
2022-10-02T18:12:18.643Z,69.43
2022-10-02T18:15:22.026Z,69.95
2022-10-02T18:18:18.981Z,69.73
2022-10-02T18:21:08.077Z,69.81
2022-10-02T18:24:18.509Z,69.71
2022-10-02T18:27:23.049Z,69.59
2022-10-02T18:30:22.273Z,69.76
2022-10-02T18:33:14.544Z,69.34
2022-10-02T18:36:12.945Z,69.36
2022-10-02T18:39:23.367Z,69.33
2022-10-02T18:42:40.039Z,69.41
2022-10-02T18:45:29.732Z,69.69
2022-10-02T18:48:27.193Z,69.26
2022-10-02T18:51:05.142Z,69.64
2022-10-02T18:53:50.825Z,69.95
2022-10-02T18:56:22.955Z,69.85
2022-10-02T18:58:58.880Z,69.78
2022-10-02T19:01:38.762Z,69.72
2022-10-02T19:04:19.591Z,69.79
2022-10-02T19:07:19.304Z,69.95
2022-10-02T19:09:46.871Z,70.10
2022-10-02T19:12:16.169Z,70.25
2022-10-02T19:14:47.485Z,70.25
2022-10-02T19:17:23.576Z,70.20
2022-10-02T19:19:50.456Z,70.50
2022-10-02T19:22:23.766Z,70.47
2022-10-02T19:25:03.716Z,70.61
2022-10-02T19:27:35.007Z,70.38
2022-10-02T19:30:23.483Z,70.48
2022-10-02T19:32:50.915Z,70.58
2022-10-02T19:35:23.061Z,70.73
2022-10-02T19:37:51.364Z,70.72
2022-10-02T19:40:21.957Z,71.15
2022-10-02T19:42:54.742Z,71.08
2022-10-02T19:45:29.101Z,71.04
2022-10-02T19:48:09.735Z,71.24
2022-10-02T19:50:46.545Z,71.24
2022-10-02T19:53:33.370Z,71.37
2022-10-02T19:56:13.049Z,71.67
2022-10-02T19:58:44.528Z,71.88
2022-10-02T20:01:25.908Z,71.76
2022-10-02T20:03:58.285Z,71.84
2022-10-02T20:06:27.221Z,72.24
2022-10-02T20:08:58.229Z,71.88
2022-10-02T20:11:39.231Z,72.40
2022-10-02T20:14:08.537Z,72.19
2022-10-02T20:16:53.990Z,72.20
2022-10-02T20:19:31.921Z,72.41
2022-10-02T20:21:59.911Z,72.21
2022-10-02T20:24:31.158Z,72.10
2022-10-02T20:27:07.026Z,72.37
2022-10-02T20:29:37.145Z,72.65
2022-10-02T20:32:26.242Z,72.28
2022-10-02T20:35:03.783Z,72.39
2022-10-02T20:37:31.753Z,72.41
2022-10-02T20:40:08.797Z,72.63
2022-10-02T20:42:40.570Z,72.64
2022-10-02T20:45:12.324Z,72.70
2022-10-02T20:47:53.850Z,72.71
2022-10-02T20:50:25.546Z,72.56
2022-10-02T20:53:13.721Z,72.55
2022-10-02T20:56:18.155Z,72.54
2022-10-02T20:58:53.857Z,72.88
2022-10-02T21:01:22.131Z,72.96
2022-10-02T21:06:55.743Z,72.79
2022-10-02T21:09:34.581Z,72.83
2022-10-02T21:12:25.721Z,72.76
2022-10-02T21:15:11.319Z,72.72
2022-10-02T21:17:57.708Z,73.04
2022-10-02T21:20:51.555Z,73.22
2022-10-02T21:23:56.325Z,72.89
2022-10-02T21:26:33.036Z,73.09
2022-10-02T21:29:17.100Z,73.43
2022-10-02T21:32:02.669Z,73.40
2022-10-02T21:34:43.487Z,73.23
2022-10-02T21:37:33.983Z,73.12
2022-10-02T21:40:19.669Z,73.43
2022-10-02T21:43:11.704Z,73.35
2022-10-02T21:46:12.669Z,73.26
2022-10-02T21:48:54.357Z,73.33
2022-10-02T21:51:44.600Z,73.45
2022-10-02T21:54:29.951Z,73.64
2022-10-02T21:57:11.977Z,73.60
2022-10-02T21:59:58.983Z,73.60
2022-10-02T22:02:37.300Z,73.34
2022-10-02T22:05:29.439Z,73.64
2022-10-02T22:08:06.783Z,73.91
2022-10-02T22:10:42.129Z,73.90
2022-10-02T22:13:18.280Z,74.01
2022-10-02T22:16:14.255Z,73.79
2022-10-02T22:18:53.600Z,73.87
2022-10-02T22:21:52.687Z,73.91
2022-10-02T22:24:34.216Z,73.87
2022-10-02T22:27:24.802Z,74.24
2022-10-02T22:29:55.639Z,74.03
2022-10-02T22:32:48.780Z,74.32
2022-10-02T22:35:27.736Z,73.98
2022-10-02T22:38:26.020Z,74.18
2022-10-02T22:40:55.114Z,74.04
2022-10-02T22:43:32.018Z,74.52
2022-10-02T22:46:07.867Z,74.37
2022-10-02T22:48:46.579Z,74.36
2022-10-02T22:51:22.360Z,74.24
2022-10-02T22:54:02.918Z,74.02
2022-10-02T22:56:35.546Z,74.46
2022-10-02T22:59:08.621Z,74.21
2022-10-02T23:01:49.157Z,74.69
2022-10-02T23:04:36.463Z,74.37
2022-10-02T23:07:16.408Z,74.39
2022-10-02T23:09:59.540Z,74.32
2022-10-02T23:13:12.892Z,74.63
2022-10-02T23:16:02.005Z,74.30
2022-10-02T23:18:56.872Z,74.34
2022-10-02T23:21:26.410Z,74.38
2022-10-02T23:24:06.139Z,74.37
2022-10-02T23:26:39.631Z,74.19
2022-10-02T23:29:31.087Z,74.26
2022-10-02T23:32:19.048Z,74.54
2022-10-02T23:34:59.856Z,74.49
2022-10-02T23:37:54.127Z,74.71
2022-10-02T23:41:08.661Z,74.38
2022-10-02T23:43:38.660Z,74.41
2022-10-02T23:46:15.036Z,74.60
2022-10-02T23:48:41.980Z,74.65
2022-10-02T23:51:18.677Z,74.63
2022-10-02T23:54:14.727Z,74.72
2022-10-02T23:57:06.232Z,74.57
2022-10-02T23:59:52.268Z,74.71
